sensor_id;sensor_type;location;lat;lon;timestamp;P1;durP1;ratioP1;P2;durP2;ratioP2
57848;SDS011;68645;44.762;21.516;2023-04-16T00:01:10;28.05;;;15.82;;
57848;SDS011;68645;44.762;21.516;2023-04-16T00:03:37;36.15;;;20.35;;
57848;SDS011;68645;44.762;21.516;2023-04-16T00:06:03;34.40;;;20.05;;
57848;SDS011;68645;44.762;21.516;2023-04-16T00:08:29;34.08;;;17.65;;
57848;SDS011;68645;44.762;21.516;2023-04-16T00:10:55;32.83;;;16.88;;
57848;SDS011;68645;44.762;21.516;2023-04-16T00:13:21;34.03;;;16.95;;
57848;SDS011;68645;44.762;21.516;2023-04-16T00:15:47;32.03;;;15.23;;
57848;SDS011;68645;44.762;21.516;2023-04-16T00:18:13;22.08;;;12.98;;
57848;SDS011;68645;44.762;21.516;2023-04-16T00:20:40;21.42;;;12.23;;
57848;SDS011;68645;44.762;21.516;2023-04-16T00:23:06;19.65;;;10.00;;
57848;SDS011;68645;44.762;21.516;2023-04-16T00:25:32;15.20;;;9.77;;
57848;SDS011;68645;44.762;21.516;2023-04-16T00:27:58;15.80;;;9.70;;
57848;SDS011;68645;44.762;21.516;2023-04-16T00:30:24;16.65;;;10.85;;
57848;SDS011;68645;44.762;21.516;2023-04-16T00:32:50;14.30;;;8.48;;
57848;SDS011;68645;44.762;21.516;2023-04-16T00:35:16;20.00;;;12.82;;
57848;SDS011;68645;44.762;21.516;2023-04-16T00:37:42;21.30;;;13.80;;
57848;SDS011;68645;44.762;21.516;2023-04-16T00:40:09;20.27;;;15.18;;
57848;SDS011;68645;44.762;21.516;2023-04-16T00:42:35;26.15;;;18.00;;
57848;SDS011;68645;44.762;21.516;2023-04-16T00:45:02;25.00;;;17.83;;
57848;SDS011;68645;44.762;21.516;2023-04-16T00:47:28;23.58;;;15.88;;
57848;SDS011;68645;44.762;21.516;2023-04-16T00:49:55;22.42;;;14.23;;
57848;SDS011;68645;44.762;21.516;2023-04-16T00:52:21;20.45;;;13.02;;
57848;SDS011;68645;44.762;21.516;2023-04-16T00:54:47;20.02;;;10.50;;
57848;SDS011;68645;44.762;21.516;2023-04-16T00:57:14;15.65;;;10.35;;
57848;SDS011;68645;44.762;21.516;2023-04-16T00:59:40;13.65;;;8.95;;
57848;SDS011;68645;44.762;21.516;2023-04-16T01:02:07;22.88;;;9.93;;
57848;SDS011;68645;44.762;21.516;2023-04-16T01:04:33;15.18;;;9.45;;
57848;SDS011;68645;44.762;21.516;2023-04-16T01:06:59;16.60;;;9.73;;
57848;SDS011;68645;44.762;21.516;2023-04-16T01:09:25;17.80;;;11.40;;
57848;SDS011;68645;44.762;21.516;2023-04-16T01:11:52;14.40;;;9.85;;
57848;SDS011;68645;44.762;21.516;2023-04-16T01:14:18;16.10;;;9.77;;
57848;SDS011;68645;44.762;21.516;2023-04-16T01:16:44;18.30;;;11.63;;
57848;SDS011;68645;44.762;21.516;2023-04-16T01:19:10;16.85;;;10.75;;
57848;SDS011;68645;44.762;21.516;2023-04-16T01:21:36;20.35;;;11.38;;
57848;SDS011;68645;44.762;21.516;2023-04-16T01:24:02;19.88;;;11.55;;
57848;SDS011;68645;44.762;21.516;2023-04-16T01:26:29;17.13;;;11.70;;
57848;SDS011;68645;44.762;21.516;2023-04-16T01:28:55;21.17;;;12.63;;
57848;SDS011;68645;44.762;21.516;2023-04-16T01:31:21;21.50;;;11.73;;
57848;SDS011;68645;44.762;21.516;2023-04-16T01:33:47;22.08;;;12.30;;
57848;SDS011;68645;44.762;21.516;2023-04-16T01:36:13;18.38;;;10.02;;
57848;SDS011;68645;44.762;21.516;2023-04-16T01:38:40;19.80;;;9.45;;
57848;SDS011;68645;44.762;21.516;2023-04-16T01:41:06;30.58;;;16.05;;
57848;SDS011;68645;44.762;21.516;2023-04-16T01:43:32;30.27;;;15.05;;
57848;SDS011;68645;44.762;21.516;2023-04-16T01:46:07;32.38;;;17.30;;
57848;SDS011;68645;44.762;21.516;2023-04-16T01:48:36;37.38;;;17.52;;
57848;SDS011;68645;44.762;21.516;2023-04-16T01:51:02;25.77;;;14.95;;
57848;SDS011;68645;44.762;21.516;2023-04-16T01:53:29;48.42;;;24.38;;
57848;SDS011;68645;44.762;21.516;2023-04-16T01:55:55;38.92;;;21.70;;
57848;SDS011;68645;44.762;21.516;2023-04-16T01:58:21;29.27;;;17.85;;
57848;SDS011;68645;44.762;21.516;2023-04-16T02:00:47;25.83;;;14.32;;
57848;SDS011;68645;44.762;21.516;2023-04-16T02:03:14;23.63;;;12.55;;
57848;SDS011;68645;44.762;21.516;2023-04-16T02:05:41;17.30;;;11.45;;
57848;SDS011;68645;44.762;21.516;2023-04-16T02:08:07;19.25;;;12.77;;
57848;SDS011;68645;44.762;21.516;2023-04-16T02:10:33;24.83;;;14.23;;
57848;SDS011;68645;44.762;21.516;2023-04-16T02:12:59;22.05;;;13.38;;
57848;SDS011;68645;44.762;21.516;2023-04-16T02:15:26;24.77;;;15.65;;
57848;SDS011;68645;44.762;21.516;2023-04-16T02:17:52;37.72;;;22.00;;
57848;SDS011;68645;44.762;21.516;2023-04-16T02:20:20;36.95;;;19.20;;
57848;SDS011;68645;44.762;21.516;2023-04-16T02:22:47;28.52;;;18.00;;
57848;SDS011;68645;44.762;21.516;2023-04-16T02:25:13;29.10;;;18.02;;
57848;SDS011;68645;44.762;21.516;2023-04-16T02:27:39;39.28;;;21.33;;
57848;SDS011;68645;44.762;21.516;2023-04-16T02:30:06;51.00;;;30.42;;
57848;SDS011;68645;44.762;21.516;2023-04-16T02:32:32;48.13;;;28.67;;
57848;SDS011;68645;44.762;21.516;2023-04-16T02:34:58;33.40;;;20.15;;
57848;SDS011;68645;44.762;21.516;2023-04-16T02:37:24;35.70;;;21.55;;
57848;SDS011;68645;44.762;21.516;2023-04-16T02:39:50;25.85;;;15.52;;
57848;SDS011;68645;44.762;21.516;2023-04-16T02:42:17;43.13;;;22.42;;
57848;SDS011;68645;44.762;21.516;2023-04-16T02:44:43;39.35;;;19.48;;
57848;SDS011;68645;44.762;21.516;2023-04-16T02:47:09;34.33;;;20.23;;
57848;SDS011;68645;44.762;21.516;2023-04-16T02:49:35;34.65;;;19.17;;
57848;SDS011;68645;44.762;21.516;2023-04-16T02:52:01;37.63;;;19.80;;
57848;SDS011;68645;44.762;21.516;2023-04-16T02:54:27;38.72;;;21.73;;
57848;SDS011;68645;44.762;21.516;2023-04-16T02:56:54;40.05;;;22.73;;
57848;SDS011;68645;44.762;21.516;2023-04-16T02:59:20;46.28;;;24.55;;
57848;SDS011;68645;44.762;21.516;2023-04-16T03:01:47;50.20;;;27.38;;
57848;SDS011;68645;44.762;21.516;2023-04-16T03:04:13;54.85;;;29.95;;
57848;SDS011;68645;44.762;21.516;2023-04-16T03:06:39;53.67;;;28.60;;
57848;SDS011;68645;44.762;21.516;2023-04-16T03:09:05;49.92;;;28.17;;
57848;SDS011;68645;44.762;21.516;2023-04-16T03:11:31;48.85;;;27.55;;
57848;SDS011;68645;44.762;21.516;2023-04-16T03:13:57;44.75;;;24.65;;
57848;SDS011;68645;44.762;21.516;2023-04-16T03:16:23;35.00;;;20.60;;
57848;SDS011;68645;44.762;21.516;2023-04-16T03:18:50;36.80;;;20.48;;
57848;SDS011;68645;44.762;21.516;2023-04-16T03:21:16;37.75;;;20.52;;
57848;SDS011;68645;44.762;21.516;2023-04-16T03:23:42;37.00;;;21.17;;
57848;SDS011;68645;44.762;21.516;2023-04-16T03:26:08;34.60;;;20.25;;
57848;SDS011;68645;44.762;21.516;2023-04-16T03:28:34;33.47;;;19.00;;
57848;SDS011;68645;44.762;21.516;2023-04-16T03:31:00;35.90;;;20.25;;
57848;SDS011;68645;44.762;21.516;2023-04-16T03:33:26;41.03;;;22.55;;
57848;SDS011;68645;44.762;21.516;2023-04-16T03:35:56;39.55;;;22.30;;
57848;SDS011;68645;44.762;21.516;2023-04-16T03:38:23;59.28;;;34.90;;
57848;SDS011;68645;44.762;21.516;2023-04-16T03:40:52;58.85;;;36.53;;
57848;SDS011;68645;44.762;21.516;2023-04-16T03:43:18;43.50;;;21.52;;
57848;SDS011;68645;44.762;21.516;2023-04-16T03:45:44;38.97;;;20.92;;
57848;SDS011;68645;44.762;21.516;2023-04-16T03:48:11;40.58;;;20.88;;
57848;SDS011;68645;44.762;21.516;2023-04-16T03:50:37;65.03;;;34.60;;
57848;SDS011;68645;44.762;21.516;2023-04-16T03:53:03;67.70;;;36.67;;
57848;SDS011;68645;44.762;21.516;2023-04-16T03:55:29;49.10;;;27.30;;
57848;SDS011;68645;44.762;21.516;2023-04-16T03:57:55;49.78;;;25.92;;
57848;SDS011;68645;44.762;21.516;2023-04-16T04:00:21;46.00;;;24.08;;
57848;SDS011;68645;44.762;21.516;2023-04-16T04:02:48;48.72;;;26.45;;
57848;SDS011;68645;44.762;21.516;2023-04-16T04:05:14;47.17;;;25.17;;
57848;SDS011;68645;44.762;21.516;2023-04-16T04:07:40;44.00;;;24.05;;
57848;SDS011;68645;44.762;21.516;2023-04-16T04:10:06;48.35;;;27.15;;
57848;SDS011;68645;44.762;21.516;2023-04-16T04:12:32;45.30;;;24.75;;
57848;SDS011;68645;44.762;21.516;2023-04-16T04:14:59;36.60;;;20.33;;
57848;SDS011;68645;44.762;21.516;2023-04-16T04:17:25;39.42;;;21.08;;
57848;SDS011;68645;44.762;21.516;2023-04-16T04:19:51;30.48;;;17.55;;
57848;SDS011;68645;44.762;21.516;2023-04-16T04:22:18;27.75;;;14.73;;
57848;SDS011;68645;44.762;21.516;2023-04-16T04:24:44;27.48;;;16.27;;
57848;SDS011;68645;44.762;21.516;2023-04-16T04:27:10;41.28;;;23.63;;
57848;SDS011;68645;44.762;21.516;2023-04-16T04:29:36;31.02;;;17.67;;
57848;SDS011;68645;44.762;21.516;2023-04-16T04:32:02;24.00;;;14.27;;
57848;SDS011;68645;44.762;21.516;2023-04-16T04:34:28;23.85;;;13.43;;
57848;SDS011;68645;44.762;21.516;2023-04-16T04:36:54;25.65;;;15.15;;
57848;SDS011;68645;44.762;21.516;2023-04-16T04:39:21;31.77;;;17.38;;
57848;SDS011;68645;44.762;21.516;2023-04-16T04:41:47;28.48;;;16.95;;
57848;SDS011;68645;44.762;21.516;2023-04-16T04:44:13;49.28;;;24.80;;
57848;SDS011;68645;44.762;21.516;2023-04-16T04:46:39;94.75;;;47.78;;
57848;SDS011;68645;44.762;21.516;2023-04-16T04:49:05;49.22;;;26.48;;
57848;SDS011;68645;44.762;21.516;2023-04-16T04:51:32;24.98;;;14.13;;
57848;SDS011;68645;44.762;21.516;2023-04-16T04:53:58;26.00;;;14.50;;
57848;SDS011;68645;44.762;21.516;2023-04-16T04:56:24;34.03;;;17.52;;
57848;SDS011;68645;44.762;21.516;2023-04-16T04:58:51;33.33;;;17.40;;
57848;SDS011;68645;44.762;21.516;2023-04-16T05:01:17;29.98;;;14.25;;
57848;SDS011;68645;44.762;21.516;2023-04-16T05:03:43;31.05;;;16.30;;
57848;SDS011;68645;44.762;21.516;2023-04-16T05:06:09;39.58;;;22.30;;
57848;SDS011;68645;44.762;21.516;2023-04-16T05:08:35;35.35;;;21.48;;
57848;SDS011;68645;44.762;21.516;2023-04-16T05:11:01;38.25;;;20.70;;
57848;SDS011;68645;44.762;21.516;2023-04-16T05:13:28;140.05;;;65.10;;
57848;SDS011;68645;44.762;21.516;2023-04-16T05:15:54;99.22;;;47.13;;
57848;SDS011;68645;44.762;21.516;2023-04-16T05:18:20;24.75;;;13.98;;
57848;SDS011;68645;44.762;21.516;2023-04-16T05:20:46;105.38;;;53.53;;
57848;SDS011;68645;44.762;21.516;2023-04-16T05:23:12;126.18;;;65.43;;
57848;SDS011;68645;44.762;21.516;2023-04-16T05:25:39;89.28;;;48.22;;
57848;SDS011;68645;44.762;21.516;2023-04-16T05:28:05;161.30;;;77.40;;
57848;SDS011;68645;44.762;21.516;2023-04-16T05:30:32;111.55;;;51.75;;
57848;SDS011;68645;44.762;21.516;2023-04-16T05:32:58;68.20;;;31.90;;
57848;SDS011;68645;44.762;21.516;2023-04-16T05:35:24;35.88;;;18.98;;
57848;SDS011;68645;44.762;21.516;2023-04-16T05:37:50;29.02;;;18.00;;
57848;SDS011;68645;44.762;21.516;2023-04-16T05:40:17;32.05;;;19.60;;
57848;SDS011;68645;44.762;21.516;2023-04-16T05:42:43;25.83;;;15.10;;
57848;SDS011;68645;44.762;21.516;2023-04-16T05:45:09;29.38;;;15.85;;
57848;SDS011;68645;44.762;21.516;2023-04-16T05:47:35;27.33;;;15.30;;
57848;SDS011;68645;44.762;21.516;2023-04-16T05:50:01;53.65;;;24.60;;
57848;SDS011;68645;44.762;21.516;2023-04-16T05:52:27;34.42;;;17.60;;
57848;SDS011;68645;44.762;21.516;2023-04-16T05:54:53;38.67;;;19.33;;
57848;SDS011;68645;44.762;21.516;2023-04-16T05:57:20;288.70;;;128.05;;
57848;SDS011;68645;44.762;21.516;2023-04-16T05:59:46;325.42;;;145.63;;
57848;SDS011;68645;44.762;21.516;2023-04-16T06:02:12;106.70;;;52.67;;
57848;SDS011;68645;44.762;21.516;2023-04-16T06:04:38;42.88;;;22.95;;
57848;SDS011;68645;44.762;21.516;2023-04-16T06:07:04;122.78;;;61.30;;
57848;SDS011;68645;44.762;21.516;2023-04-16T06:09:31;79.05;;;40.33;;
57848;SDS011;68645;44.762;21.516;2023-04-16T06:11:57;42.40;;;21.65;;
57848;SDS011;68645;44.762;21.516;2023-04-16T06:14:23;46.25;;;25.05;;
57848;SDS011;68645;44.762;21.516;2023-04-16T06:16:49;125.15;;;69.32;;
57848;SDS011;68645;44.762;21.516;2023-04-16T06:19:15;33.22;;;20.42;;
57848;SDS011;68645;44.762;21.516;2023-04-16T06:21:41;21.92;;;14.10;;
57848;SDS011;68645;44.762;21.516;2023-04-16T06:24:07;28.33;;;16.25;;
57848;SDS011;68645;44.762;21.516;2023-04-16T06:26:34;25.27;;;16.02;;
57848;SDS011;68645;44.762;21.516;2023-04-16T06:29:00;26.38;;;14.95;;
57848;SDS011;68645;44.762;21.516;2023-04-16T06:31:26;24.00;;;14.13;;
57848;SDS011;68645;44.762;21.516;2023-04-16T06:33:52;29.67;;;17.80;;
57848;SDS011;68645;44.762;21.516;2023-04-16T06:36:18;22.60;;;12.63;;
57848;SDS011;68645;44.762;21.516;2023-04-16T06:38:45;22.38;;;14.63;;
57848;SDS011;68645;44.762;21.516;2023-04-16T06:41:11;18.95;;;11.10;;
57848;SDS011;68645;44.762;21.516;2023-04-16T06:43:38;20.15;;;9.85;;
57848;SDS011;68645;44.762;21.516;2023-04-16T06:46:04;20.35;;;10.80;;
57848;SDS011;68645;44.762;21.516;2023-04-16T06:48:30;20.42;;;11.68;;
57848;SDS011;68645;44.762;21.516;2023-04-16T06:50:56;21.55;;;13.35;;
57848;SDS011;68645;44.762;21.516;2023-04-16T06:53:23;25.95;;;15.02;;
57848;SDS011;68645;44.762;21.516;2023-04-16T06:55:49;18.67;;;11.95;;
57848;SDS011;68645;44.762;21.516;2023-04-16T06:58:15;18.17;;;11.48;;
57848;SDS011;68645;44.762;21.516;2023-04-16T07:00:41;17.30;;;10.20;;
57848;SDS011;68645;44.762;21.516;2023-04-16T07:03:07;16.50;;;11.00;;
57848;SDS011;68645;44.762;21.516;2023-04-16T07:05:33;17.15;;;11.45;;
57848;SDS011;68645;44.762;21.516;2023-04-16T07:08:00;15.30;;;9.00;;
57848;SDS011;68645;44.762;21.516;2023-04-16T07:10:26;16.40;;;9.15;;
57848;SDS011;68645;44.762;21.516;2023-04-16T07:12:52;10.10;;;5.25;;
57848;SDS011;68645;44.762;21.516;2023-04-16T07:15:18;8.93;;;5.20;;
57848;SDS011;68645;44.762;21.516;2023-04-16T07:17:44;11.05;;;5.95;;
57848;SDS011;68645;44.762;21.516;2023-04-16T07:20:10;11.55;;;6.68;;
57848;SDS011;68645;44.762;21.516;2023-04-16T07:22:37;11.10;;;6.22;;
57848;SDS011;68645;44.762;21.516;2023-04-16T07:25:03;10.75;;;5.22;;
57848;SDS011;68645;44.762;21.516;2023-04-16T07:27:29;9.70;;;6.50;;
57848;SDS011;68645;44.762;21.516;2023-04-16T07:29:55;10.73;;;6.28;;
57848;SDS011;68645;44.762;21.516;2023-04-16T07:32:21;9.27;;;4.50;;
57848;SDS011;68645;44.762;21.516;2023-04-16T07:34:47;8.90;;;4.72;;
57848;SDS011;68645;44.762;21.516;2023-04-16T07:37:13;8.88;;;6.30;;
57848;SDS011;68645;44.762;21.516;2023-04-16T07:39:40;8.30;;;5.25;;
57848;SDS011;68645;44.762;21.516;2023-04-16T07:42:06;10.68;;;6.95;;
57848;SDS011;68645;44.762;21.516;2023-04-16T07:44:32;7.53;;;5.07;;
57848;SDS011;68645;44.762;21.516;2023-04-16T07:46:58;8.98;;;5.38;;
57848;SDS011;68645;44.762;21.516;2023-04-16T07:49:24;8.30;;;5.20;;
57848;SDS011;68645;44.762;21.516;2023-04-16T07:51:50;10.27;;;6.10;;
57848;SDS011;68645;44.762;21.516;2023-04-16T07:54:16;10.93;;;6.13;;
57848;SDS011;68645;44.762;21.516;2023-04-16T07:56:44;10.27;;;4.82;;
57848;SDS011;68645;44.762;21.516;2023-04-16T07:59:10;16.27;;;10.60;;
57848;SDS011;68645;44.762;21.516;2023-04-16T08:01:36;8.60;;;4.95;;
57848;SDS011;68645;44.762;21.516;2023-04-16T08:04:02;9.23;;;4.68;;
57848;SDS011;68645;44.762;21.516;2023-04-16T08:06:28;6.88;;;3.50;;
57848;SDS011;68645;44.762;21.516;2023-04-16T08:08:55;8.68;;;4.90;;
57848;SDS011;68645;44.762;21.516;2023-04-16T08:11:21;8.43;;;4.47;;
57848;SDS011;68645;44.762;21.516;2023-04-16T08:13:48;5.13;;;2.78;;
57848;SDS011;68645;44.762;21.516;2023-04-16T08:16:14;5.95;;;3.05;;
57848;SDS011;68645;44.762;21.516;2023-04-16T08:18:41;7.90;;;3.90;;
57848;SDS011;68645;44.762;21.516;2023-04-16T08:21:07;9.07;;;5.82;;
57848;SDS011;68645;44.762;21.516;2023-04-16T08:23:33;5.47;;;3.15;;
57848;SDS011;68645;44.762;21.516;2023-04-16T08:25:59;5.47;;;3.10;;
57848;SDS011;68645;44.762;21.516;2023-04-16T08:28:26;6.47;;;2.80;;
57848;SDS011;68645;44.762;21.516;2023-04-16T08:30:52;8.30;;;2.95;;
57848;SDS011;68645;44.762;21.516;2023-04-16T08:33:18;3.58;;;1.88;;
57848;SDS011;68645;44.762;21.516;2023-04-16T08:35:44;7.82;;;3.08;;
57848;SDS011;68645;44.762;21.516;2023-04-16T08:38:10;6.85;;;4.00;;
57848;SDS011;68645;44.762;21.516;2023-04-16T08:40:37;5.88;;;3.85;;
57848;SDS011;68645;44.762;21.516;2023-04-16T08:43:04;5.88;;;3.13;;
57848;SDS011;68645;44.762;21.516;2023-04-16T08:45:32;6.45;;;3.53;;
57848;SDS011;68645;44.762;21.516;2023-04-16T08:47:59;6.97;;;2.65;;
57848;SDS011;68645;44.762;21.516;2023-04-16T08:50:26;5.85;;;2.78;;
57848;SDS011;68645;44.762;21.516;2023-04-16T08:53:02;4.55;;;2.58;;
57848;SDS011;68645;44.762;21.516;2023-04-16T08:55:32;10.38;;;5.47;;
57848;SDS011;68645;44.762;21.516;2023-04-16T08:58:03;4.72;;;2.85;;
57848;SDS011;68645;44.762;21.516;2023-04-16T09:00:32;9.05;;;4.03;;
57848;SDS011;68645;44.762;21.516;2023-04-16T09:02:59;5.90;;;3.70;;
57848;SDS011;68645;44.762;21.516;2023-04-16T09:05:25;6.28;;;4.22;;
57848;SDS011;68645;44.762;21.516;2023-04-16T09:07:52;4.00;;;2.30;;
57848;SDS011;68645;44.762;21.516;2023-04-16T09:10:22;4.65;;;2.22;;
57848;SDS011;68645;44.762;21.516;2023-04-16T09:12:56;4.00;;;2.47;;
57848;SDS011;68645;44.762;21.516;2023-04-16T09:15:23;4.07;;;2.58;;
57848;SDS011;68645;44.762;21.516;2023-04-16T09:17:53;3.45;;;2.30;;
57848;SDS011;68645;44.762;21.516;2023-04-16T09:20:21;4.55;;;2.67;;
57848;SDS011;68645;44.762;21.516;2023-04-16T09:22:47;5.82;;;3.25;;
57848;SDS011;68645;44.762;21.516;2023-04-16T09:25:13;7.57;;;4.00;;
57848;SDS011;68645;44.762;21.516;2023-04-16T09:27:40;7.40;;;5.25;;
57848;SDS011;68645;44.762;21.516;2023-04-16T09:30:19;4.57;;;3.05;;
57848;SDS011;68645;44.762;21.516;2023-04-16T09:32:49;8.55;;;3.75;;
57848;SDS011;68645;44.762;21.516;2023-04-16T09:35:16;6.10;;;3.03;;
57848;SDS011;68645;44.762;21.516;2023-04-16T09:37:43;4.75;;;2.65;;
57848;SDS011;68645;44.762;21.516;2023-04-16T09:40:09;8.32;;;3.90;;
57848;SDS011;68645;44.762;21.516;2023-04-16T09:42:35;7.63;;;6.03;;
57848;SDS011;68645;44.762;21.516;2023-04-16T09:45:02;8.48;;;5.05;;
57848;SDS011;68645;44.762;21.516;2023-04-16T09:47:38;7.68;;;5.68;;
57848;SDS011;68645;44.762;21.516;2023-04-16T09:50:05;5.03;;;3.50;;
57848;SDS011;68645;44.762;21.516;2023-04-16T09:52:35;4.72;;;2.90;;
57848;SDS011;68645;44.762;21.516;2023-04-16T09:55:02;6.22;;;4.45;;
57848;SDS011;68645;44.762;21.516;2023-04-16T09:57:29;7.30;;;5.00;;
57848;SDS011;68645;44.762;21.516;2023-04-16T10:00:02;9.30;;;6.18;;
57848;SDS011;68645;44.762;21.516;2023-04-16T10:02:29;5.07;;;3.50;;
57848;SDS011;68645;44.762;21.516;2023-04-16T10:04:55;7.72;;;5.25;;
57848;SDS011;68645;44.762;21.516;2023-04-16T10:07:22;9.93;;;6.40;;
57848;SDS011;68645;44.762;21.516;2023-04-16T10:09:52;4.88;;;3.30;;
57848;SDS011;68645;44.762;21.516;2023-04-16T10:12:20;7.43;;;4.78;;
57848;SDS011;68645;44.762;21.516;2023-04-16T10:14:46;9.30;;;5.65;;
57848;SDS011;68645;44.762;21.516;2023-04-16T10:17:12;4.63;;;2.90;;
57848;SDS011;68645;44.762;21.516;2023-04-16T10:19:39;4.35;;;2.40;;
57848;SDS011;68645;44.762;21.516;2023-04-16T10:22:05;5.82;;;3.83;;
57848;SDS011;68645;44.762;21.516;2023-04-16T10:24:32;8.30;;;5.22;;
57848;SDS011;68645;44.762;21.516;2023-04-16T10:26:58;5.13;;;3.28;;
57848;SDS011;68645;44.762;21.516;2023-04-16T10:29:28;7.03;;;4.30;;
57848;SDS011;68645;44.762;21.516;2023-04-16T10:31:55;4.07;;;2.70;;
57848;SDS011;68645;44.762;21.516;2023-04-16T10:34:21;5.15;;;3.10;;
57848;SDS011;68645;44.762;21.516;2023-04-16T10:36:49;5.85;;;3.60;;
57848;SDS011;68645;44.762;21.516;2023-04-16T10:39:37;13.15;;;8.57;;
57848;SDS011;68645;44.762;21.516;2023-04-16T10:42:10;8.57;;;5.53;;
57848;SDS011;68645;44.762;21.516;2023-04-16T10:44:36;5.68;;;3.13;;
57848;SDS011;68645;44.762;21.516;2023-04-16T10:47:08;6.15;;;4.35;;
57848;SDS011;68645;44.762;21.516;2023-04-16T10:49:35;7.97;;;4.80;;
57848;SDS011;68645;44.762;21.516;2023-04-16T10:52:11;6.63;;;3.22;;
57848;SDS011;68645;44.762;21.516;2023-04-16T10:54:39;4.32;;;2.72;;
57848;SDS011;68645;44.762;21.516;2023-04-16T10:57:06;3.85;;;2.47;;
57848;SDS011;68645;44.762;21.516;2023-04-16T10:59:34;5.93;;;3.55;;
57848;SDS011;68645;44.762;21.516;2023-04-16T11:02:01;5.25;;;2.35;;
57848;SDS011;68645;44.762;21.516;2023-04-16T11:12:18;5.10;;;2.42;;
57848;SDS011;68645;44.762;21.516;2023-04-16T11:14:48;4.75;;;3.03;;
57848;SDS011;68645;44.762;21.516;2023-04-16T11:19:41;3.55;;;2.20;;
57848;SDS011;68645;44.762;21.516;2023-04-16T11:22:08;4.05;;;2.40;;
57848;SDS011;68645;44.762;21.516;2023-04-16T11:24:35;3.30;;;2.17;;
57848;SDS011;68645;44.762;21.516;2023-04-16T11:27:03;4.43;;;2.70;;
57848;SDS011;68645;44.762;21.516;2023-04-16T11:29:29;5.55;;;3.88;;
57848;SDS011;68645;44.762;21.516;2023-04-16T11:31:55;7.18;;;3.67;;
57848;SDS011;68645;44.762;21.516;2023-04-16T11:34:21;4.95;;;2.75;;
57848;SDS011;68645;44.762;21.516;2023-04-16T11:36:49;4.03;;;2.42;;
57848;SDS011;68645;44.762;21.516;2023-04-16T11:39:15;4.10;;;2.50;;
57848;SDS011;68645;44.762;21.516;2023-04-16T11:41:45;4.72;;;2.72;;
57848;SDS011;68645;44.762;21.516;2023-04-16T11:44:22;5.65;;;4.45;;
57848;SDS011;68645;44.762;21.516;2023-04-16T11:46:49;4.20;;;2.78;;
57848;SDS011;68645;44.762;21.516;2023-04-16T11:49:16;3.92;;;2.30;;
57848;SDS011;68645;44.762;21.516;2023-04-16T11:51:43;5.32;;;3.13;;
57848;SDS011;68645;44.762;21.516;2023-04-16T11:54:16;3.05;;;1.83;;
57848;SDS011;68645;44.762;21.516;2023-04-16T11:56:44;4.38;;;2.38;;
57848;SDS011;68645;44.762;21.516;2023-04-16T11:59:19;3.00;;;1.80;;
57848;SDS011;68645;44.762;21.516;2023-04-16T12:01:50;4.15;;;2.30;;
57848;SDS011;68645;44.762;21.516;2023-04-16T12:04:21;7.37;;;5.07;;
57848;SDS011;68645;44.762;21.516;2023-04-16T12:09:34;4.85;;;2.90;;
57848;SDS011;68645;44.762;21.516;2023-04-16T12:12:00;4.30;;;2.70;;
57848;SDS011;68645;44.762;21.516;2023-04-16T12:14:27;7.43;;;4.63;;
57848;SDS011;68645;44.762;21.516;2023-04-16T12:16:54;14.50;;;8.82;;
57848;SDS011;68645;44.762;21.516;2023-04-16T12:19:20;15.40;;;7.97;;
57848;SDS011;68645;44.762;21.516;2023-04-16T12:21:47;6.22;;;3.72;;
57848;SDS011;68645;44.762;21.516;2023-04-16T12:24:17;5.13;;;1.77;;
57848;SDS011;68645;44.762;21.516;2023-04-16T12:26:51;3.60;;;1.98;;
57848;SDS011;68645;44.762;21.516;2023-04-16T12:29:20;5.60;;;3.63;;
57848;SDS011;68645;44.762;21.516;2023-04-16T12:31:47;5.63;;;2.00;;
57848;SDS011;68645;44.762;21.516;2023-04-16T12:34:14;2.85;;;1.60;;
57848;SDS011;68645;44.762;21.516;2023-04-16T12:36:41;2.67;;;1.48;;
57848;SDS011;68645;44.762;21.516;2023-04-16T12:39:08;3.00;;;1.48;;
57848;SDS011;68645;44.762;21.516;2023-04-16T12:41:37;2.65;;;1.35;;
57848;SDS011;68645;44.762;21.516;2023-04-16T12:44:04;3.65;;;1.60;;
57848;SDS011;68645;44.762;21.516;2023-04-16T12:46:31;5.47;;;2.95;;
57848;SDS011;68645;44.762;21.516;2023-04-16T12:48:57;2.17;;;1.40;;
57848;SDS011;68645;44.762;21.516;2023-04-16T12:51:24;4.28;;;2.70;;
57848;SDS011;68645;44.762;21.516;2023-04-16T12:53:51;3.30;;;1.60;;
57848;SDS011;68645;44.762;21.516;2023-04-16T12:56:17;4.60;;;2.13;;
57848;SDS011;68645;44.762;21.516;2023-04-16T12:58:43;4.47;;;2.38;;
57848;SDS011;68645;44.762;21.516;2023-04-16T13:01:10;3.63;;;1.63;;
57848;SDS011;68645;44.762;21.516;2023-04-16T13:03:36;3.42;;;2.22;;
57848;SDS011;68645;44.762;21.516;2023-04-16T13:06:03;3.75;;;1.67;;
57848;SDS011;68645;44.762;21.516;2023-04-16T13:08:29;3.78;;;1.70;;
57848;SDS011;68645;44.762;21.516;2023-04-16T13:10:55;3.85;;;1.50;;
57848;SDS011;68645;44.762;21.516;2023-04-16T13:13:21;4.78;;;2.58;;
57848;SDS011;68645;44.762;21.516;2023-04-16T13:15:48;3.28;;;1.90;;
57848;SDS011;68645;44.762;21.516;2023-04-16T13:18:14;4.47;;;2.60;;
57848;SDS011;68645;44.762;21.516;2023-04-16T13:20:40;2.63;;;1.60;;
57848;SDS011;68645;44.762;21.516;2023-04-16T13:23:06;5.05;;;2.08;;
57848;SDS011;68645;44.762;21.516;2023-04-16T13:25:33;4.63;;;2.20;;
57848;SDS011;68645;44.762;21.516;2023-04-16T13:27:59;4.82;;;2.72;;
57848;SDS011;68645;44.762;21.516;2023-04-16T13:30:25;5.22;;;1.60;;
57848;SDS011;68645;44.762;21.516;2023-04-16T13:32:53;4.35;;;1.77;;
57848;SDS011;68645;44.762;21.516;2023-04-16T13:35:19;4.70;;;2.63;;
57848;SDS011;68645;44.762;21.516;2023-04-16T13:37:46;4.65;;;2.20;;
57848;SDS011;68645;44.762;21.516;2023-04-16T13:40:12;7.38;;;4.53;;
57848;SDS011;68645;44.762;21.516;2023-04-16T13:42:38;7.15;;;4.95;;
57848;SDS011;68645;44.762;21.516;2023-04-16T13:45:04;6.95;;;3.40;;
57848;SDS011;68645;44.762;21.516;2023-04-16T13:47:31;6.53;;;4.50;;
57848;SDS011;68645;44.762;21.516;2023-04-16T13:49:57;4.47;;;2.65;;
57848;SDS011;68645;44.762;21.516;2023-04-16T13:52:23;4.63;;;2.75;;
57848;SDS011;68645;44.762;21.516;2023-04-16T13:54:50;7.78;;;4.07;;
57848;SDS011;68645;44.762;21.516;2023-04-16T13:57:16;8.55;;;5.70;;
57848;SDS011;68645;44.762;21.516;2023-04-16T13:59:42;5.85;;;4.07;;
57848;SDS011;68645;44.762;21.516;2023-04-16T14:02:09;9.05;;;5.82;;
57848;SDS011;68645;44.762;21.516;2023-04-16T14:04:35;6.95;;;3.53;;
57848;SDS011;68645;44.762;21.516;2023-04-16T14:07:02;4.07;;;2.28;;
57848;SDS011;68645;44.762;21.516;2023-04-16T14:09:28;4.18;;;2.45;;
57848;SDS011;68645;44.762;21.516;2023-04-16T14:11:54;3.97;;;2.30;;
57848;SDS011;68645;44.762;21.516;2023-04-16T14:14:21;6.07;;;2.88;;
57848;SDS011;68645;44.762;21.516;2023-04-16T14:16:47;5.20;;;2.95;;
57848;SDS011;68645;44.762;21.516;2023-04-16T14:19:13;5.88;;;2.95;;
57848;SDS011;68645;44.762;21.516;2023-04-16T14:21:39;5.90;;;2.78;;
57848;SDS011;68645;44.762;21.516;2023-04-16T14:24:06;7.43;;;3.65;;
57848;SDS011;68645;44.762;21.516;2023-04-16T14:26:33;6.70;;;3.90;;
57848;SDS011;68645;44.762;21.516;2023-04-16T14:28:59;4.60;;;2.58;;
57848;SDS011;68645;44.762;21.516;2023-04-16T14:31:25;4.05;;;2.40;;